sensor_id;sensor_type;location;lat;lon;timestamp;pressure;altitude;pressure_sealevel;temperature;humidity
55757;BME280;41676;44.610;44.078;2022-12-18T00:04:29;101199.97;;;4.57;100.00
55757;BME280;41676;44.610;44.078;2022-12-18T00:09:30;101293.47;;;5.13;100.00
55757;BME280;41676;44.610;44.078;2022-12-18T00:14:31;101269.69;;;5.01;100.00
55757;BME280;41676;44.610;44.078;2022-12-18T00:19:31;101298.09;;;5.22;100.00
55757;BME280;41676;44.610;44.078;2022-12-18T00:24:32;101199.97;;;4.57;100.00
55757;BME280;41676;44.610;44.078;2022-12-18T00:29:33;101271.38;;;5.02;100.00
55757;BME280;41676;44.610;44.078;2022-12-18T00:34:34;101200.41;;;4.51;100.00
55757;BME280;41676;44.610;44.078;2022-12-18T00:39:35;101216.38;;;4.74;100.00
55757;BME280;41676;44.610;44.078;2022-12-18T00:44:35;101255.16;;;5.09;100.00
55757;BME280;41676;44.610;44.078;2022-12-18T00:49:36;101282.28;;;5.22;100.00
55757;BME280;41676;44.610;44.078;2022-12-18T00:54:37;101236.19;;;5.03;100.00
55757;BME280;41676;44.610;44.078;2022-12-18T00:59:38;101206.50;;;5.01;100.00
55757;BME280;41676;44.610;44.078;2022-12-18T01:04:38;101176.13;;;4.85;100.00
55757;BME280;41676;44.610;44.078;2022-12-18T01:09:39;101134.09;;;4.59;100.00
55757;BME280;41676;44.610;44.078;2022-12-18T01:14:40;101243.44;;;5.13;100.00
55757;BME280;41676;44.610;44.078;2022-12-18T01:19:41;101176.66;;;4.77;100.00
55757;BME280;41676;44.610;44.078;2022-12-18T01:24:42;101217.16;;;5.00;100.00
55757;BME280;41676;44.610;44.078;2022-12-18T01:29:43;101230.03;;;5.16;100.00
55757;BME280;41676;44.610;44.078;2022-12-18T01:34:43;101250.56;;;5.23;100.00
55757;BME280;41676;44.610;44.078;2022-12-18T01:39:44;101239.81;;;5.26;100.00
55757;BME280;41676;44.610;44.078;2022-12-18T01:45:01;101244.94;;;5.28;100.00
55757;BME280;41676;44.610;44.078;2022-12-18T01:50:08;101223.81;;;5.17;100.00
55757;BME280;41676;44.610;44.078;2022-12-18T01:55:11;101247.19;;;5.21;100.00
55757;BME280;41676;44.610;44.078;2022-12-18T02:00:20;101247.19;;;5.21;100.00
55757;BME280;41676;44.610;44.078;2022-12-18T02:06:17;101211.22;;;5.09;100.00
55757;BME280;41676;44.610;44.078;2022-12-18T02:16:23;101150.66;;;4.72;100.00
55757;BME280;41676;44.610;44.078;2022-12-18T02:21:36;101238.09;;;5.25;100.00
55757;BME280;41676;44.610;44.078;2022-12-18T02:26:48;101222.44;;;5.24;100.00
55757;BME280;41676;44.610;44.078;2022-12-18T02:31:54;101232.84;;;5.25;100.00
55757;BME280;41676;44.610;44.078;2022-12-18T02:36:57;101202.69;;;5.06;100.00
55757;BME280;41676;44.610;44.078;2022-12-18T02:42:00;101192.94;;;4.95;100.00
55757;BME280;41676;44.610;44.078;2022-12-18T02:47:02;101154.59;;;4.67;100.00
55757;BME280;41676;44.610;44.078;2022-12-18T03:02:48;101222.91;;;5.29;100.00
55757;BME280;41676;44.610;44.078;2022-12-18T03:07:58;101171.34;;;4.90;100.00
55757;BME280;41676;44.610;44.078;2022-12-18T03:13:07;101137.94;;;4.79;100.00
55757;BME280;41676;44.610;44.078;2022-12-18T03:18:17;101137.25;;;4.88;100.00
55757;BME280;41676;44.610;44.078;2022-12-18T03:23:25;101202.06;;;5.26;100.00
55757;BME280;41676;44.610;44.078;2022-12-18T03:28:30;101208.81;;;5.30;100.00
55757;BME280;41676;44.610;44.078;2022-12-18T03:33:43;101216.09;;;5.51;100.00
55757;BME280;41676;44.610;44.078;2022-12-18T03:38:46;101211.00;;;5.36;100.00
55757;BME280;41676;44.610;44.078;2022-12-18T03:43:55;101222.00;;;5.41;100.00
55757;BME280;41676;44.610;44.078;2022-12-18T03:49:04;101235.47;;;5.49;100.00
55757;BME280;41676;44.610;44.078;2022-12-18T03:54:09;101222.22;;;5.38;100.00
55757;BME280;41676;44.610;44.078;2022-12-18T03:59:12;101240.13;;;5.46;100.00
55757;BME280;41676;44.610;44.078;2022-12-18T04:04:16;101225.84;;;5.37;100.00
55757;BME280;41676;44.610;44.078;2022-12-18T04:09:18;101194.75;;;5.18;100.00
55757;BME280;41676;44.610;44.078;2022-12-18T04:14:19;101223.94;;;5.39;100.00
55757;BME280;41676;44.610;44.078;2022-12-18T04:19:20;101252.53;;;5.57;100.00
55757;BME280;41676;44.610;44.078;2022-12-18T04:24:21;101207.53;;;5.36;100.00
55757;BME280;41676;44.610;44.078;2022-12-18T04:29:22;101244.63;;;5.57;100.00
55757;BME280;41676;44.610;44.078;2022-12-18T04:34:23;101177.59;;;5.13;100.00
55757;BME280;41676;44.610;44.078;2022-12-18T04:39:24;101195.88;;;5.27;100.00
55757;BME280;41676;44.610;44.078;2022-12-18T04:44:25;101101.84;;;4.68;100.00
55757;BME280;41676;44.610;44.078;2022-12-18T04:49:25;101234.63;;;5.49;100.00
55757;BME280;41676;44.610;44.078;2022-12-18T04:54:26;101173.31;;;5.23;100.00
55757;BME280;41676;44.610;44.078;2022-12-18T04:59:27;101221.34;;;5.51;100.00
55757;BME280;41676;44.610;44.078;2022-12-18T05:04:28;101218.81;;;5.49;100.00
55757;BME280;41676;44.610;44.078;2022-12-18T05:09:29;101258.78;;;5.67;100.00
55757;BME280;41676;44.610;44.078;2022-12-18T05:14:29;101167.88;;;5.13;100.00
55757;BME280;41676;44.610;44.078;2022-12-18T05:19:30;101243.44;;;5.61;100.00
55757;BME280;41676;44.610;44.078;2022-12-18T05:24:31;101110.25;;;4.73;100.00
55757;BME280;41676;44.610;44.078;2022-12-18T05:29:32;101260.09;;;5.61;100.00
55757;BME280;41676;44.610;44.078;2022-12-18T05:34:33;101172.31;;;5.13;100.00
55757;BME280;41676;44.610;44.078;2022-12-18T05:39:34;101233.22;;;5.56;100.00
55757;BME280;41676;44.610;44.078;2022-12-18T05:44:34;101241.16;;;5.67;100.00
55757;BME280;41676;44.610;44.078;2022-12-18T05:49:35;101215.63;;;5.57;100.00
55757;BME280;41676;44.610;44.078;2022-12-18T05:54:36;101131.69;;;5.04;100.00
55757;BME280;41676;44.610;44.078;2022-12-18T05:59:37;101226.63;;;5.51;100.00
55757;BME280;41676;44.610;44.078;2022-12-18T06:04:38;101209.13;;;5.49;100.00
55757;BME280;41676;44.610;44.078;2022-12-18T06:09:39;101216.94;;;5.62;100.00
55757;BME280;41676;44.610;44.078;2022-12-18T06:14:39;101192.97;;;5.54;100.00
55757;BME280;41676;44.610;44.078;2022-12-18T06:19:40;101207.25;;;5.63;100.00
55757;BME280;41676;44.610;44.078;2022-12-18T06:24:41;101216.38;;;5.70;100.00
55757;BME280;41676;44.610;44.078;2022-12-18T06:29:41;101217.94;;;5.72;100.00
55757;BME280;41676;44.610;44.078;2022-12-18T06:34:42;101242.75;;;5.70;100.00
55757;BME280;41676;44.610;44.078;2022-12-18T06:39:43;101249.69;;;5.71;100.00
55757;BME280;41676;44.610;44.078;2022-12-18T06:44:44;101171.41;;;5.25;100.00
55757;BME280;41676;44.610;44.078;2022-12-18T06:49:44;101234.16;;;5.79;100.00
55757;BME280;41676;44.610;44.078;2022-12-18T06:54:45;101249.88;;;5.92;100.00
55757;BME280;41676;44.610;44.078;2022-12-18T06:59:46;101246.19;;;5.94;100.00
55757;BME280;41676;44.610;44.078;2022-12-18T07:04:49;101240.66;;;5.86;100.00
55757;BME280;41676;44.610;44.078;2022-12-18T07:09:50;101248.28;;;5.78;100.00
55757;BME280;41676;44.610;44.078;2022-12-18T07:14:51;101073.06;;;4.78;100.00
55757;BME280;41676;44.610;44.078;2022-12-18T07:19:52;101221.94;;;5.78;100.00
55757;BME280;41676;44.610;44.078;2022-12-18T07:24:53;101137.50;;;5.44;100.00
55757;BME280;41676;44.610;44.078;2022-12-18T07:29:53;101179.75;;;5.78;100.00
55757;BME280;41676;44.610;44.078;2022-12-18T07:34:55;101217.94;;;6.19;100.00
55757;BME280;41676;44.610;44.078;2022-12-18T07:39:56;101220.47;;;6.21;100.00
55757;BME280;41676;44.610;44.078;2022-12-18T07:45:00;101217.50;;;6.25;100.00
55757;BME280;41676;44.610;44.078;2022-12-18T07:50:03;101233.56;;;6.33;100.00
55757;BME280;41676;44.610;44.078;2022-12-18T07:55:04;101125.91;;;5.69;100.00
55757;BME280;41676;44.610;44.078;2022-12-18T08:00:06;101210.41;;;6.26;100.00
55757;BME280;41676;44.610;44.078;2022-12-18T08:05:07;101188.47;;;6.25;100.00
55757;BME280;41676;44.610;44.078;2022-12-18T08:10:08;101201.16;;;6.43;100.00
55757;BME280;41676;44.610;44.078;2022-12-18T08:15:09;101201.41;;;6.39;100.00
55757;BME280;41676;44.610;44.078;2022-12-18T08:20:10;101180.44;;;6.38;100.00
55757;BME280;41676;44.610;44.078;2022-12-18T08:25:11;101208.84;;;6.46;100.00
55757;BME280;41676;44.610;44.078;2022-12-18T08:30:12;101123.72;;;5.99;100.00
55757;BME280;41676;44.610;44.078;2022-12-18T08:35:13;101188.94;;;6.53;100.00
55757;BME280;41676;44.610;44.078;2022-12-18T08:40:14;101171.16;;;6.55;100.00
55757;BME280;41676;44.610;44.078;2022-12-18T08:45:15;101077.91;;;6.00;100.00
55757;BME280;41676;44.610;44.078;2022-12-18T08:50:17;101147.06;;;6.37;100.00
55757;BME280;41676;44.610;44.078;2022-12-18T08:55:18;101146.97;;;6.50;100.00
55757;BME280;41676;44.610;44.078;2022-12-18T09:00:19;101064.00;;;6.09;100.00
55757;BME280;41676;44.610;44.078;2022-12-18T09:05:20;101022.75;;;6.08;100.00
55757;BME280;41676;44.610;44.078;2022-12-18T09:10:21;101105.75;;;6.70;100.00
55757;BME280;41676;44.610;44.078;2022-12-18T09:15:22;100988.72;;;6.05;100.00
55757;BME280;41676;44.610;44.078;2022-12-18T09:20:22;101092.59;;;6.58;100.00
55757;BME280;41676;44.610;44.078;2022-12-18T09:25:23;101057.97;;;6.29;100.00
55757;BME280;41676;44.610;44.078;2022-12-18T09:30:24;100987.38;;;5.88;100.00
55757;BME280;41676;44.610;44.078;2022-12-18T09:35:25;101080.72;;;6.53;100.00
55757;BME280;41676;44.610;44.078;2022-12-18T09:40:29;101093.44;;;6.59;100.00
55757;BME280;41676;44.610;44.078;2022-12-18T09:45:41;101009.66;;;6.17;100.00
55757;BME280;41676;44.610;44.078;2022-12-18T09:50:44;101100.38;;;6.60;100.00
55757;BME280;41676;44.610;44.078;2022-12-18T09:55:46;101022.28;;;6.14;100.00
55757;BME280;41676;44.610;44.078;2022-12-18T10:00:48;101077.59;;;6.59;100.00
55757;BME280;41676;44.610;44.078;2022-12-18T10:11:26;101072.66;;;6.98;100.00
55757;BME280;41676;44.610;44.078;2022-12-18T10:16:47;101091.72;;;7.01;100.00
55757;BME280;41676;44.610;44.078;2022-12-18T10:22:11;101074.81;;;6.93;100.00
55757;BME280;41676;44.610;44.078;2022-12-18T10:27:18;101089.06;;;7.01;100.00
55757;BME280;41676;44.610;44.078;2022-12-18T10:32:22;101083.03;;;7.11;100.00
55757;BME280;41676;44.610;44.078;2022-12-18T10:37:27;100992.91;;;6.39;100.00
55757;BME280;41676;44.610;44.078;2022-12-18T10:42:28;101080.19;;;7.02;100.00
55757;BME280;41676;44.610;44.078;2022-12-18T10:47:29;101069.28;;;6.96;100.00
55757;BME280;41676;44.610;44.078;2022-12-18T10:52:30;101068.31;;;6.97;100.00
55757;BME280;41676;44.610;44.078;2022-12-18T11:02:37;101050.78;;;6.63;100.00
55757;BME280;41676;44.610;44.078;2022-12-18T11:07:48;101041.22;;;6.62;100.00
55757;BME280;41676;44.610;44.078;2022-12-18T11:12:50;100961.34;;;6.17;100.00
55757;BME280;41676;44.610;44.078;2022-12-18T11:17:51;101070.34;;;6.72;100.00
55757;BME280;41676;44.610;44.078;2022-12-18T11:22:58;101059.09;;;6.59;100.00
55757;BME280;41676;44.610;44.078;2022-12-18T11:28:05;101100.56;;;6.79;100.00
55757;BME280;41676;44.610;44.078;2022-12-18T11:33:18;101006.75;;;6.32;100.00
55757;BME280;41676;44.610;44.078;2022-12-18T11:38:55;101102.81;;;6.84;100.00
55757;BME280;41676;44.610;44.078;2022-12-18T11:44:11;101126.50;;;6.74;100.00
55757;BME280;41676;44.610;44.078;2022-12-18T11:49:25;101122.91;;;6.64;100.00
55757;BME280;41676;44.610;44.078;2022-12-18T11:54:27;101117.28;;;6.69;100.00
55757;BME280;41676;44.610;44.078;2022-12-18T12:15:39;101109.84;;;6.62;100.00
55757;BME280;41676;44.610;44.078;2022-12-18T12:41:54;101112.66;;;6.38;100.00
55757;BME280;41676;44.610;44.078;2022-12-18T12:47:20;101114.56;;;6.48;100.00
55757;BME280;41676;44.610;44.078;2022-12-18T12:52:55;101148.97;;;6.57;100.00
55757;BME280;41676;44.610;44.078;2022-12-18T13:04:03;101165.44;;;6.50;100.00
55757;BME280;41676;44.610;44.078;2022-12-18T13:09:06;101140.84;;;6.15;100.00
55757;BME280;41676;44.610;44.078;2022-12-18T13:14:20;101178.75;;;6.26;100.00
55757;BME280;41676;44.610;44.078;2022-12-18T13:19:23;101166.16;;;6.18;100.00
55757;BME280;41676;44.610;44.078;2022-12-18T13:24:27;101157.03;;;6.33;100.00
55757;BME280;41676;44.610;44.078;2022-12-18T13:34:42;101165.78;;;6.11;100.00
55757;BME280;41676;44.610;44.078;2022-12-18T13:39:43;100988.66;;;5.03;100.00
55757;BME280;41676;44.610;44.078;2022-12-18T13:44:44;101153.91;;;6.06;100.00
55757;BME280;41676;44.610;44.078;2022-12-18T13:49:46;101138.91;;;5.95;100.00
55757;BME280;41676;44.610;44.078;2022-12-18T13:54:54;101126.78;;;5.92;100.00
55757;BME280;41676;44.610;44.078;2022-12-18T13:59:56;101062.75;;;5.45;100.00
55757;BME280;41676;44.610;44.078;2022-12-18T14:04:57;101140.22;;;6.01;100.00
55757;BME280;41676;44.610;44.078;2022-12-18T14:09:59;101072.44;;;5.56;100.00
55757;BME280;41676;44.610;44.078;2022-12-18T14:15:03;101154.88;;;5.93;100.00
55757;BME280;41676;44.610;44.078;2022-12-18T14:20:15;101160.00;;;5.95;100.00
55757;BME280;41676;44.610;44.078;2022-12-18T14:35:24;101148.13;;;5.89;100.00
55757;BME280;41676;44.610;44.078;2022-12-18T14:40:25;101145.00;;;5.84;100.00
55757;BME280;41676;44.610;44.078;2022-12-18T14:45:42;101166.69;;;5.88;100.00
55757;BME280;41676;44.610;44.078;2022-12-18T14:50:45;101166.56;;;5.78;100.00
55757;BME280;41676;44.610;44.078;2022-12-18T14:55:55;101181.66;;;5.76;100.00
55757;BME280;41676;44.610;44.078;2022-12-18T15:00:56;101190.66;;;5.85;100.00
55757;BME280;41676;44.610;44.078;2022-12-18T15:06:18;101178.91;;;5.89;100.00
55757;BME280;41676;44.610;44.078;2022-12-18T15:11:32;101185.03;;;5.89;100.00
55757;BME280;41676;44.610;44.078;2022-12-18T15:16:34;101204.59;;;5.98;100.00
55757;BME280;41676;44.610;44.078;2022-12-18T15:21:35;101171.34;;;5.73;100.00
55757;BME280;41676;44.610;44.078;2022-12-18T15:26:36;101219.59;;;5.98;100.00
55757;BME280;41676;44.610;44.078;2022-12-18T15:31:38;101054.38;;;5.05;100.00
55757;BME280;41676;44.610;44.078;2022-12-18T15:36:40;101205.47;;;5.99;100.00
55757;BME280;41676;44.610;44.078;2022-12-18T15:41:41;101208.03;;;5.87;100.00
55757;BME280;41676;44.610;44.078;2022-12-18T15:47:02;101176.00;;;5.69;100.00
55757;BME280;41676;44.610;44.078;2022-12-18T15:52:03;101139.75;;;5.49;100.00
55757;BME280;41676;44.610;44.078;2022-12-18T15:57:03;101235.59;;;6.07;100.00
55757;BME280;41676;44.610;44.078;2022-12-18T16:02:23;101150.34;;;5.60;100.00
55757;BME280;41676;44.610;44.078;2022-12-18T16:07:24;101241.09;;;6.04;100.00
55757;BME280;41676;44.610;44.078;2022-12-18T16:12:25;101244.59;;;5.92;100.00
55757;BME280;41676;44.610;44.078;2022-12-18T16:17:26;101158.38;;;5.35;100.00
55757;BME280;41676;44.610;44.078;2022-12-18T16:22:30;101217.22;;;5.70;100.00
55757;BME280;41676;44.610;44.078;2022-12-18T16:27:31;101163.94;;;5.43;100.00
55757;BME280;41676;44.610;44.078;2022-12-18T16:32:31;101203.44;;;5.67;100.00
55757;BME280;41676;44.610;44.078;2022-12-18T16:37:32;101222.41;;;5.83;100.00
55757;BME280;41676;44.610;44.078;2022-12-18T16:42:33;101134.81;;;5.33;100.00
55757;BME280;41676;44.610;44.078;2022-12-18T16:47:34;101217.50;;;5.79;100.00
55757;BME280;41676;44.610;44.078;2022-12-18T16:52:35;101153.25;;;5.33;100.00
55757;BME280;41676;44.610;44.078;2022-12-18T16:57:36;101214.22;;;5.64;100.00
55757;BME280;41676;44.610;44.078;2022-12-18T17:02:37;101228.22;;;5.64;100.00
55757;BME280;41676;44.610;44.078;2022-12-18T17:07:38;101193.03;;;5.41;100.00
55757;BME280;41676;44.610;44.078;2022-12-18T17:12:39;101168.03;;;5.23;100.00
55757;BME280;41676;44.610;44.078;2022-12-18T17:17:40;101205.13;;;5.44;100.00
55757;BME280;41676;44.610;44.078;2022-12-18T17:22:41;101221.91;;;5.43;100.00
55757;BME280;41676;44.610;44.078;2022-12-18T17:27:41;101221.06;;;5.42;100.00
55757;BME280;41676;44.610;44.078;2022-12-18T17:32:42;101228.81;;;5.33;100.00
55757;BME280;41676;44.610;44.078;2022-12-18T17:37:43;101240.19;;;5.09;100.00
55757;BME280;41676;44.610;44.078;2022-12-18T17:42:44;101240.72;;;5.01;100.00
55757;BME280;41676;44.610;44.078;2022-12-18T17:47:45;101236.50;;;4.99;100.00
55757;BME280;41676;44.610;44.078;2022-12-18T17:52:45;101143.81;;;4.33;100.00
55757;BME280;41676;44.610;44.078;2022-12-18T17:57:46;101254.25;;;4.84;100.00
55757;BME280;41676;44.610;44.078;2022-12-18T18:02:47;101235.22;;;4.68;100.00
55757;BME280;41676;44.610;44.078;2022-12-18T18:07:48;101268.00;;;4.64;100.00
55757;BME280;41676;44.610;44.078;2022-12-18T18:12:49;101170.06;;;3.96;100.00
55757;BME280;41676;44.610;44.078;2022-12-18T18:18:08;101254.31;;;4.33;100.00
55757;BME280;41676;44.610;44.078;2022-12-18T18:23:09;101240.19;;;4.21;100.00
55757;BME280;41676;44.610;44.078;2022-12-18T18:28:10;101095.91;;;3.40;100.00
55757;BME280;41676;44.610;44.078;2022-12-18T18:33:11;101246.53;;;4.31;100.00
55757;BME280;41676;44.610;44.078;2022-12-18T18:38:12;101246.63;;;4.30;100.00
55757;BME280;41676;44.610;44.078;2022-12-18T18:43:13;101210.13;;;4.12;100.00
55757;BME280;41676;44.610;44.078;2022-12-18T18:48:14;101225.69;;;4.28;100.00
55757;BME280;41676;44.610;44.078;2022-12-18T18:53:14;101237.78;;;4.44;100.00
55757;BME280;41676;44.610;44.078;2022-12-18T18:58:15;101220.84;;;4.48;100.00
55757;BME280;41676;44.610;44.078;2022-12-18T19:03:19;101153.56;;;4.07;100.00
55757;BME280;41676;44.610;44.078;2022-12-18T19:08:22;101226.94;;;4.48;100.00
55757;BME280;41676;44.610;44.078;2022-12-18T19:13:24;101230.00;;;4.42;100.00
55757;BME280;41676;44.610;44.078;2022-12-18T19:18:26;101219.06;;;4.23;100.00
55757;BME280;41676;44.610;44.078;2022-12-18T19:23:27;101228.09;;;4.19;100.00
55757;BME280;41676;44.610;44.078;2022-12-18T19:28:28;101156.03;;;3.57;100.00
55757;BME280;41676;44.610;44.078;2022-12-18T19:33:33;101145.59;;;3.43;100.00
55757;BME280;41676;44.610;44.078;2022-12-18T19:38:33;101258.41;;;4.24;100.00
55757;BME280;41676;44.610;44.078;2022-12-18T19:43:38;101254.50;;;4.04;100.00
55757;BME280;41676;44.610;44.078;2022-12-18T19:48:39;101252.81;;;3.91;100.00
55757;BME280;41676;44.610;44.078;2022-12-18T19:53:40;101228.16;;;3.66;100.00
55757;BME280;41676;44.610;44.078;2022-12-18T19:58:41;101231.28;;;3.58;100.00
55757;BME280;41676;44.610;44.078;2022-12-18T20:03:43;101259.13;;;3.61;100.00
55757;BME280;41676;44.610;44.078;2022-12-18T20:08:44;101149.69;;;2.94;100.00
55757;BME280;41676;44.610;44.078;2022-12-18T20:13:45;101161.22;;;2.92;100.00
55757;BME280;41676;44.610;44.078;2022-12-18T20:18:45;101219.22;;;3.29;100.00
55757;BME280;41676;44.610;44.078;2022-12-18T20:23:46;101247.84;;;3.46;100.00
55757;BME280;41676;44.610;44.078;2022-12-18T20:28:47;101184.78;;;3.06;100.00
55757;BME280;41676;44.610;44.078;2022-12-18T20:33:48;101147.94;;;2.81;100.00
55757;BME280;41676;44.610;44.078;2022-12-18T20:38:50;101249.69;;;3.31;100.00
55757;BME280;41676;44.610;44.078;2022-12-18T20:43:53;101243.78;;;3.28;100.00
55757;BME280;41676;44.610;44.078;2022-12-18T20:48:54;101218.97;;;3.19;100.00
55757;BME280;41676;44.610;44.078;2022-12-18T20:53:56;101226.97;;;3.17;100.00
55757;BME280;41676;44.610;44.078;2022-12-18T20:58:59;101225.00;;;3.07;100.00
55757;BME280;41676;44.610;44.078;2022-12-18T21:04:00;101217.25;;;3.05;100.00
55757;BME280;41676;44.610;44.078;2022-12-18T21:09:01;101215.84;;;3.00;100.00
55757;BME280;41676;44.610;44.078;2022-12-18T21:14:03;101216.03;;;2.96;100.00
55757;BME280;41676;44.610;44.078;2022-12-18T21:19:05;101062.41;;;1.95;100.00
55757;BME280;41676;44.610;44.078;2022-12-18T21:24:07;101140.34;;;2.35;100.00
55757;BME280;41676;44.610;44.078;2022-12-18T21:29:18;101228.06;;;2.86;100.00
55757;BME280;41676;44.610;44.078;2022-12-18T21:34:24;101152.53;;;2.21;100.00
55757;BME280;41676;44.610;44.078;2022-12-18T21:39:27;101241.84;;;2.76;100.00
55757;BME280;41676;44.610;44.078;2022-12-18T21:44:28;101175.72;;;2.42;100.00
55757;BME280;41676;44.610;44.078;2022-12-18T21:49:29;101245.31;;;2.90;100.00
55757;BME280;41676;44.610;44.078;2022-12-18T21:54:30;101140.53;;;2.32;100.00
55757;BME280;41676;44.610;44.078;2022-12-18T21:59:34;101246.84;;;3.07;100.00
55757;BME280;41676;44.610;44.078;2022-12-18T22:04:35;101257.25;;;3.09;100.00
55757;BME280;41676;44.610;44.078;2022-12-18T22:09:36;101261.13;;;3.03;100.00
55757;BME280;41676;44.610;44.078;2022-12-18T22:14:37;101257.59;;;3.17;100.00
55757;BME280;41676;44.610;44.078;2022-12-18T22:19:37;101278.69;;;3.30;100.00
55757;BME280;41676;44.610;44.078;2022-12-18T22:24:38;101262.75;;;3.18;100.00
55757;BME280;41676;44.610;44.078;2022-12-18T22:29:39;101271.53;;;3.32;100.00
55757;BME280;41676;44.610;44.078;2022-12-18T22:34:59;101261.03;;;3.32;100.00
55757;BME280;41676;44.610;44.078;2022-12-18T22:40:00;101274.72;;;3.37;100.00
55757;BME280;41676;44.610;44.078;2022-12-18T22:45:01;101254.09;;;3.31;100.00
55757;BME280;41676;44.610;44.078;2022-12-18T22:50:02;101266.84;;;3.37;100.00
55757;BME280;41676;44.610;44.078;2022-12-18T22:55:03;101282.56;;;3.51;100.00
55757;BME280;41676;44.610;44.078;2022-12-18T23:00:04;101254.53;;;3.37;100.00
55757;BME280;41676;44.610;44.078;2022-12-18T23:05:06;101207.28;;;3.10;100.00
55757;BME280;41676;44.610;44.078;2022-12-18T23:10:07;101283.44;;;3.64;100.00
55757;BME280;41676;44.610;44.078;2022-12-18T23:15:08;101267.97;;;3.60;100.00
55757;BME280;41676;44.610;44.078;2022-12-18T23:20:09;101243.94;;;3.39;100.00
55757;BME280;41676;44.610;44.078;2022-12-18T23:25:10;101298.53;;;3.88;100.00
55757;BME280;41676;44.610;44.078;2022-12-18T23:30:11;101290.50;;;3.77;100.00
55757;BME280;41676;44.610;44.078;2022-12-18T23:35:12;101314.50;;;3.85;100.00
55757;BME280;41676;44.610;44.078;2022-12-18T23:40:13;101318.91;;;3.84;100.00
55757;BME280;41676;44.610;44.078;2022-12-18T23:45:13;101297.53;;;3.76;100.00
55757;BME280;41676;44.610;44.078;2022-12-18T23:50:14;101312.72;;;3.85;100.00
55757;BME280;41676;44.610;44.078;2022-12-18T23:55:15;101308.97;;;3.89;100.00
